createdAt,value
2019-05-21T00:00:39.961Z,26.30
2019-05-21T00:03:34.008Z,26.90
2019-05-21T00:06:28.441Z,27.50
2019-05-21T00:09:22.100Z,27.80
2019-05-21T00:12:16.521Z,28.10
2019-05-21T00:15:12.895Z,28.30
2019-05-21T00:18:05.537Z,28.50
2019-05-21T00:20:59.333Z,28.60
2019-05-21T00:23:53.215Z,28.70
2019-05-21T00:26:46.332Z,28.90
2019-05-21T00:29:57.001Z,29.00
2019-05-21T00:33:08.235Z,29.10
2019-05-21T00:36:19.857Z,29.10
2019-05-21T00:39:31.825Z,29.20
2019-05-21T00:42:34.967Z,29.30
2019-05-21T00:45:29.951Z,29.40
2019-05-21T00:48:24.586Z,29.40
2019-05-21T00:51:18.971Z,29.50
2019-05-21T00:54:12.946Z,29.50
2019-05-21T00:57:07.067Z,29.60
2019-05-21T01:00:01.029Z,29.70
2019-05-21T01:02:53.652Z,29.70
2019-05-21T01:05:47.583Z,29.80
2019-05-21T01:08:42.549Z,29.80
2019-05-21T01:11:35.799Z,30.00
2019-05-21T01:14:29.110Z,30.20
2019-05-21T01:17:25.014Z,30.30
2019-05-21T01:20:17.964Z,30.40
2019-05-21T01:23:10.832Z,30.50
2019-05-21T01:26:04.155Z,30.60
2019-05-21T01:28:56.857Z,30.60
2019-05-21T01:31:51.263Z,30.70
2019-05-21T01:34:44.232Z,30.70
2019-05-21T01:37:37.270Z,30.70
2019-05-21T01:40:29.585Z,30.60
2019-05-21T01:43:22.614Z,30.60
2019-05-21T01:46:15.004Z,30.60
2019-05-21T01:49:08.768Z,30.60
2019-05-21T01:52:01.144Z,30.60
2019-05-21T01:54:55.302Z,30.60
2019-05-21T01:57:48.066Z,30.60
2019-05-21T02:00:40.449Z,30.60
2019-05-21T02:03:32.761Z,30.60
2019-05-21T02:06:25.636Z,30.60
2019-05-21T02:09:18.080Z,30.60
2019-05-21T02:12:11.036Z,30.70
2019-05-21T02:15:04.123Z,30.70
2019-05-21T02:17:57.394Z,30.70
2019-05-21T02:20:50.024Z,30.70
2019-05-21T02:23:57.882Z,30.70
2019-05-21T02:26:51.817Z,30.80
2019-05-21T02:29:44.702Z,30.90
2019-05-21T02:32:37.039Z,31.00
2019-05-21T02:35:31.582Z,31.10
2019-05-21T02:38:24.288Z,31.10
2019-05-21T02:41:17.849Z,31.20
2019-05-21T02:44:10.442Z,31.30
2019-05-21T02:47:03.481Z,31.30
2019-05-21T02:49:56.782Z,31.40
2019-05-21T02:52:49.840Z,31.40
2019-05-21T02:55:44.562Z,31.50
2019-05-21T02:58:37.303Z,31.50
2019-05-21T03:01:39.664Z,31.50
2019-05-21T03:04:33.125Z,31.50
2019-05-21T03:07:26.279Z,31.50
2019-05-21T03:10:19.636Z,31.50
2019-05-21T03:13:12.444Z,31.40
2019-05-21T03:16:05.034Z,31.40
2019-05-21T03:18:58.429Z,31.30
2019-05-21T03:21:51.235Z,31.30
2019-05-21T03:24:45.612Z,31.30
2019-05-21T03:27:40.275Z,31.30
2019-05-21T03:30:34.417Z,31.30
2019-05-21T03:33:28.822Z,31.30
2019-05-21T03:36:33.362Z,31.30
2019-05-21T03:39:20.405Z,31.30
2019-05-21T03:42:13.662Z,31.30
2019-05-21T03:45:08.193Z,31.30
2019-05-21T03:48:03.376Z,31.30
2019-05-21T03:50:57.737Z,31.40
2019-05-21T03:53:53.838Z,31.40
2019-05-21T03:56:48.178Z,31.40
2019-05-21T03:59:42.072Z,31.50
2019-05-21T04:02:36.721Z,31.60
2019-05-21T04:05:30.937Z,31.70
2019-05-21T04:08:24.900Z,31.70
2019-05-21T04:11:19.533Z,31.70
2019-05-21T04:14:14.229Z,31.70
2019-05-21T04:17:16.581Z,31.70
2019-05-21T04:20:10.272Z,31.70
2019-05-21T04:23:04.024Z,31.70
2019-05-21T04:25:57.877Z,31.70
2019-05-21T04:28:52.258Z,31.80
2019-05-21T04:31:45.321Z,31.70
2019-05-21T04:34:38.523Z,31.80
2019-05-21T04:37:32.607Z,31.80
2019-05-21T04:40:26.029Z,31.80
2019-05-21T04:43:20.277Z,31.80
2019-05-21T04:46:15.557Z,31.90
2019-05-21T04:49:08.727Z,31.90
2019-05-21T04:52:03.791Z,32.00
2019-05-21T04:54:57.099Z,32.00
2019-05-21T04:57:58.763Z,32.10
2019-05-21T05:00:54.911Z,32.10
2019-05-21T05:04:06.739Z,32.10
2019-05-21T05:07:27.643Z,32.10
2019-05-21T05:10:28.247Z,32.20
2019-05-21T05:13:31.295Z,32.10
2019-05-21T05:23:31.164Z,32.00
2019-05-21T05:26:30.411Z,31.90
2019-05-21T05:29:27.307Z,31.90
2019-05-21T05:32:19.678Z,31.90
2019-05-21T05:35:21.880Z,32.00
2019-05-21T05:38:21.501Z,32.00
2019-05-21T05:41:19.880Z,32.00
2019-05-21T05:44:15.089Z,31.90
2019-05-21T05:47:10.558Z,31.90
2019-05-21T05:50:05.704Z,32.00
2019-05-21T05:53:00.392Z,31.90
2019-05-21T05:55:56.616Z,31.90
2019-05-21T05:58:57.569Z,32.00
2019-05-21T06:01:57.216Z,31.90
2019-05-21T06:04:51.697Z,32.00
2019-05-21T06:07:58.698Z,32.00
2019-05-21T06:10:46.327Z,32.00
2019-05-21T06:13:43.835Z,32.00
2019-05-21T06:16:42.238Z,32.00
2019-05-21T06:19:38.537Z,32.00
2019-05-21T06:22:33.010Z,31.90
2019-05-21T06:25:26.766Z,32.00
2019-05-21T06:28:20.852Z,32.00
2019-05-21T06:31:13.679Z,32.10
2019-05-21T06:34:07.927Z,32.00
2019-05-21T06:37:07.647Z,32.10
2019-05-21T06:40:05.341Z,32.00
2019-05-21T06:43:00.100Z,32.00
2019-05-21T06:45:53.203Z,32.10
2019-05-21T06:48:48.324Z,32.00
2019-05-21T06:51:43.283Z,32.10
2019-05-21T06:54:40.588Z,32.10
2019-05-21T06:57:33.690Z,32.10
2019-05-21T07:00:26.654Z,32.10
2019-05-21T07:03:21.832Z,32.10
2019-05-21T07:06:22.398Z,32.10
2019-05-21T07:09:26.279Z,32.10
2019-05-21T07:15:49.985Z,32.10
2019-05-21T07:19:06.641Z,32.10
2019-05-21T07:22:12.553Z,32.10
2019-05-21T07:25:02.866Z,32.10
2019-05-21T07:27:59.542Z,32.10
2019-05-21T07:30:57.545Z,32.10
2019-05-21T07:33:54.989Z,32.10
2019-05-21T07:36:50.840Z,32.10
2019-05-21T07:39:47.571Z,32.10
2019-05-21T07:42:59.466Z,32.10
2019-05-21T07:46:07.435Z,32.10
2019-05-21T07:49:10.923Z,32.10
2019-05-21T07:52:06.129Z,32.10
2019-05-21T07:55:07.736Z,32.10
2019-05-21T07:58:01.287Z,32.10
2019-05-21T08:00:54.025Z,32.10
2019-05-21T08:03:58.998Z,32.10
2019-05-21T08:06:53.563Z,32.10
2019-05-21T08:09:49.638Z,32.10
2019-05-21T08:12:43.570Z,32.20
2019-05-21T08:15:38.433Z,32.10
2019-05-21T08:18:31.657Z,32.10
2019-05-21T08:21:27.160Z,32.10
2019-05-21T08:24:22.208Z,32.10
2019-05-21T08:27:19.123Z,32.20
2019-05-21T08:30:11.940Z,32.20
2019-05-21T08:33:15.861Z,31.20
2019-05-21T08:36:09.462Z,30.40
2019-05-21T08:39:03.337Z,30.00
2019-05-21T08:42:00.305Z,29.80
2019-05-21T08:44:54.476Z,29.60
2019-05-21T08:47:48.352Z,29.70
2019-05-21T08:50:43.659Z,29.90
2019-05-21T08:53:40.496Z,30.20
2019-05-21T08:56:34.177Z,30.30
2019-05-21T08:59:28.893Z,30.20
2019-05-21T09:02:30.440Z,30.10
2019-05-21T09:05:21.958Z,30.00
2019-05-21T09:08:32.781Z,29.70
2019-05-21T09:11:33.067Z,29.60
2019-05-21T09:32:58.464Z,28.80
2019-05-21T09:43:59.506Z,28.80
2019-05-21T09:47:00.149Z,28.60
2019-05-21T09:49:57.006Z,28.50
2019-05-21T09:52:58.574Z,28.30
2019-05-21T09:55:54.052Z,28.30
2019-05-21T09:58:51.465Z,28.30
2019-05-21T10:01:49.530Z,28.30
2019-05-21T10:04:44.374Z,28.30
2019-05-21T10:07:40.629Z,28.30
2019-05-21T10:10:35.522Z,28.30
2019-05-21T10:13:31.922Z,28.30
2019-05-21T10:16:27.784Z,28.30
2019-05-21T10:19:23.457Z,28.30
2019-05-21T10:22:19.886Z,28.10
2019-05-21T10:25:20.659Z,28.10
2019-05-21T10:28:18.645Z,28.10
2019-05-21T10:31:13.237Z,28.00
2019-05-21T10:34:06.240Z,28.00
2019-05-21T10:36:59.263Z,27.80
2019-05-21T10:39:54.089Z,27.80
2019-05-21T10:42:50.918Z,27.80
2019-05-21T10:45:48.510Z,27.90
2019-05-21T10:48:51.595Z,27.80
2019-05-21T10:51:46.509Z,27.80
2019-05-21T10:54:44.304Z,27.80
2019-05-21T10:57:38.760Z,27.60
2019-05-21T11:00:40.429Z,27.70
2019-05-21T11:03:54.515Z,27.50
2019-05-21T11:07:02.478Z,27.50
2019-05-21T11:09:56.983Z,27.60
2019-05-21T11:12:53.852Z,27.60
2019-05-21T11:15:51.567Z,27.40
2019-05-21T11:18:48.524Z,27.50
2019-05-21T11:21:44.397Z,27.60
2019-05-21T11:24:40.179Z,27.50
2019-05-21T11:27:37.306Z,27.40
2019-05-21T11:30:34.185Z,27.40
2019-05-21T11:33:38.838Z,27.40
2019-05-21T11:36:36.612Z,27.40
2019-05-21T11:39:31.621Z,27.40
2019-05-21T11:42:26.257Z,27.40
2019-05-21T11:45:31.530Z,27.30
2019-05-21T11:48:14.853Z,27.30
2019-05-21T11:51:14.018Z,27.30
2019-05-21T11:54:10.770Z,27.20
2019-05-21T11:57:12.352Z,27.10
2019-05-21T12:00:10.441Z,27.10
2019-05-21T12:03:06.281Z,27.20
2019-05-21T12:06:05.140Z,27.20
2019-05-21T12:09:02.286Z,27.10
2019-05-21T12:12:02.552Z,27.10
2019-05-21T12:14:59.225Z,27.10
2019-05-21T12:17:53.650Z,27.10
2019-05-21T12:20:49.434Z,27.10
2019-05-21T12:23:44.089Z,27.00
2019-05-21T12:26:47.829Z,26.90
2019-05-21T12:29:41.280Z,27.00
2019-05-21T12:32:37.972Z,26.80
2019-05-21T12:35:34.690Z,27.00
2019-05-21T12:38:28.863Z,26.80
2019-05-21T12:41:23.816Z,26.90
2019-05-21T12:44:21.711Z,26.80
2019-05-21T12:47:16.196Z,26.90
2019-05-21T12:50:10.859Z,26.80
2019-05-21T12:53:04.083Z,26.80
2019-05-21T12:55:58.673Z,26.90
2019-05-21T12:58:52.351Z,26.90
2019-05-21T13:01:45.986Z,27.00
2019-05-21T13:04:39.246Z,27.00
2019-05-21T13:07:33.856Z,27.10
2019-05-21T13:10:28.061Z,27.10
2019-05-21T13:13:36.019Z,27.00
2019-05-21T13:16:30.990Z,27.10
2019-05-21T13:19:25.103Z,28.60
2019-05-21T13:22:18.419Z,29.40
2019-05-21T13:25:17.946Z,29.80
2019-05-21T13:28:56.183Z,30.10
2019-05-21T13:35:43.996Z,30.50
2019-05-21T13:38:36.328Z,30.70
2019-05-21T13:41:29.902Z,30.80
2019-05-21T13:44:23.140Z,30.80
2019-05-21T13:47:17.335Z,31.00
2019-05-21T13:50:10.402Z,31.00
2019-05-21T13:53:03.546Z,31.10
2019-05-21T13:55:56.631Z,31.10
2019-05-21T13:58:50.534Z,31.00
2019-05-21T14:01:43.804Z,30.90
2019-05-21T14:04:40.109Z,30.80
2019-05-21T14:07:33.410Z,30.80
2019-05-21T14:10:25.846Z,30.80
2019-05-21T14:13:19.127Z,30.90
2019-05-21T14:16:12.126Z,30.90
2019-05-21T14:19:05.142Z,30.90
2019-05-21T14:21:58.567Z,30.90
2019-05-21T14:24:52.867Z,31.00
2019-05-21T14:27:46.074Z,30.90
2019-05-21T14:30:39.108Z,31.00
2019-05-21T14:33:32.072Z,30.90
2019-05-21T14:36:26.768Z,31.00
2019-05-21T14:39:20.592Z,31.00
2019-05-21T14:42:15.418Z,31.00
2019-05-21T14:45:09.120Z,31.00
2019-05-21T14:48:01.826Z,31.00
2019-05-21T14:50:55.245Z,31.10
2019-05-21T14:53:48.323Z,31.10
2019-05-21T14:56:41.302Z,31.10
2019-05-21T14:59:34.483Z,31.20
2019-05-21T15:02:28.995Z,31.20
2019-05-21T15:05:21.911Z,31.20
2019-05-21T15:08:15.377Z,31.20
2019-05-21T15:11:07.789Z,31.30
2019-05-21T15:14:00.198Z,31.20
2019-05-21T15:16:53.206Z,31.30
2019-05-21T15:19:47.662Z,31.30
2019-05-21T15:22:40.983Z,31.30
2019-05-21T15:25:33.689Z,31.30
2019-05-21T15:28:28.961Z,31.30
2019-05-21T15:31:22.263Z,31.30
2019-05-21T15:34:15.082Z,31.30
2019-05-21T15:37:07.827Z,31.30
2019-05-21T15:40:02.303Z,31.30
2019-05-21T15:42:55.556Z,31.40
2019-05-21T15:45:48.089Z,31.40
2019-05-21T15:48:40.991Z,31.40
2019-05-21T15:51:33.678Z,31.40
2019-05-21T15:54:26.456Z,31.40
2019-05-21T15:57:19.313Z,31.40
2019-05-21T16:00:13.748Z,31.40
2019-05-21T16:03:07.657Z,31.40
2019-05-21T16:06:00.790Z,31.40
2019-05-21T16:08:55.397Z,31.40
2019-05-21T16:11:48.375Z,31.50
2019-05-21T16:14:41.280Z,31.40
2019-05-21T16:17:33.704Z,31.50
2019-05-21T16:20:27.712Z,31.50
2019-05-21T16:23:22.559Z,31.50
2019-05-21T16:26:16.854Z,31.50
2019-05-21T16:29:09.594Z,31.50
2019-05-21T16:32:02.515Z,31.50
2019-05-21T16:34:55.261Z,31.50
2019-05-21T16:37:49.119Z,31.50
2019-05-21T16:40:41.603Z,31.50
2019-05-21T16:43:34.557Z,31.50
2019-05-21T16:46:27.118Z,31.50
2019-05-21T16:49:20.145Z,31.50
2019-05-21T16:52:12.820Z,31.50
2019-05-21T16:55:06.261Z,31.50
2019-05-21T16:57:59.407Z,31.50
2019-05-21T17:00:52.259Z,31.50
2019-05-21T17:03:58.852Z,31.50
2019-05-21T17:06:38.196Z,31.50
2019-05-21T17:09:32.501Z,31.60
2019-05-21T17:12:24.806Z,31.50
2019-05-21T17:15:17.958Z,31.50
2019-05-21T17:18:10.954Z,31.50
2019-05-21T17:21:03.259Z,31.50
2019-05-21T17:23:56.296Z,31.50
2019-05-21T17:26:49.211Z,31.50
2019-05-21T17:29:41.794Z,31.50
2019-05-21T17:32:33.966Z,31.50
2019-05-21T17:35:27.582Z,31.50
2019-05-21T17:38:20.109Z,31.60
2019-05-21T17:41:12.783Z,31.50
2019-05-21T17:44:05.318Z,31.50
2019-05-21T17:46:59.279Z,31.50
2019-05-21T17:49:51.981Z,31.50
2019-05-21T17:52:44.914Z,31.60
2019-05-21T17:55:37.603Z,31.60
2019-05-21T17:58:29.908Z,31.40
2019-05-21T18:01:24.233Z,30.90
2019-05-21T18:04:17.717Z,30.20
2019-05-21T18:07:13.229Z,29.80
2019-05-21T18:10:06.146Z,29.70
2019-05-21T18:12:58.748Z,29.40
2019-05-21T18:15:52.981Z,29.40
2019-05-21T18:18:46.098Z,29.20
2019-05-21T18:21:38.781Z,29.30
2019-05-21T18:24:32.375Z,29.20
2019-05-21T18:27:27.529Z,29.10
2019-05-21T18:30:20.372Z,28.90
2019-05-21T18:33:13.427Z,28.80
2019-05-21T18:36:05.578Z,28.70
2019-05-21T18:38:57.629Z,28.50
2019-05-21T18:41:49.843Z,28.50
2019-05-21T18:44:42.142Z,28.40
2019-05-21T18:47:34.094Z,28.30
2019-05-21T18:50:35.527Z,28.40
2019-05-21T18:53:20.190Z,28.20
2019-05-21T18:56:13.936Z,28.20
2019-05-21T18:59:06.918Z,28.10
2019-05-21T19:01:59.272Z,28.00
2019-05-21T19:04:51.537Z,28.10
2019-05-21T19:07:44.494Z,28.10
2019-05-21T19:10:36.952Z,28.10
2019-05-21T19:13:31.405Z,28.00
2019-05-21T19:16:23.948Z,27.90
2019-05-21T19:19:17.271Z,27.80
2019-05-21T19:22:12.001Z,27.70
2019-05-21T19:25:04.445Z,27.70
2019-05-21T19:27:56.829Z,27.70
2019-05-21T19:30:49.304Z,27.60
2019-05-21T19:33:41.890Z,27.50
2019-05-21T19:36:34.198Z,27.40
2019-05-21T19:39:26.159Z,27.40
2019-05-21T19:42:18.616Z,27.50
2019-05-21T19:45:11.037Z,27.40
2019-05-21T19:48:03.449Z,27.50
2019-05-21T19:50:55.362Z,27.40
2019-05-21T19:53:47.674Z,27.30
2019-05-21T19:56:39.699Z,27.50
2019-05-21T19:59:32.584Z,27.60
2019-05-21T20:02:25.363Z,27.50
2019-05-21T20:05:17.935Z,27.60
2019-05-21T20:08:10.233Z,27.70
2019-05-21T20:11:02.475Z,27.50
2019-05-21T20:13:54.727Z,27.60
2019-05-21T20:16:46.895Z,27.60
2019-05-21T20:19:39.305Z,27.50
2019-05-21T20:22:32.926Z,27.50
2019-05-21T20:25:26.687Z,27.50
2019-05-21T20:28:18.730Z,27.50
2019-05-21T20:31:11.235Z,27.50
2019-05-21T20:34:03.894Z,27.60
2019-05-21T20:36:56.486Z,27.60
2019-05-21T20:39:51.391Z,27.60
2019-05-21T20:42:43.906Z,27.50
2019-05-21T20:45:37.202Z,27.50
2019-05-21T20:48:33.460Z,27.50
2019-05-21T20:51:26.140Z,27.50
2019-05-21T20:54:19.797Z,27.50
2019-05-21T20:57:12.802Z,27.30
2019-05-21T21:00:05.136Z,27.10
2019-05-21T21:02:59.003Z,27.10
2019-05-21T21:05:50.974Z,27.20
2019-05-21T21:08:43.617Z,27.10
2019-05-21T21:11:35.814Z,27.00
2019-05-21T21:14:29.458Z,26.90
2019-05-21T21:17:21.831Z,27.00
2019-05-21T21:20:14.280Z,27.00
2019-05-21T21:23:06.607Z,27.00
2019-05-21T21:25:59.111Z,27.00
2019-05-21T21:28:51.184Z,26.90
2019-05-21T21:31:43.442Z,27.00
2019-05-21T21:34:36.038Z,27.00
2019-05-21T21:37:28.637Z,26.90
2019-05-21T21:40:22.546Z,26.90
2019-05-21T21:43:14.958Z,26.80
2019-05-21T21:46:08.385Z,26.90
2019-05-21T21:49:00.926Z,26.90
2019-05-21T21:51:53.311Z,26.90
2019-05-21T21:54:45.567Z,26.80
2019-05-21T21:57:37.580Z,26.90
2019-05-21T22:01:21.330Z,26.90
2019-05-21T22:04:14.119Z,26.90
2019-05-21T22:07:06.929Z,27.00
2019-05-21T22:09:59.574Z,27.00
2019-05-21T22:12:51.798Z,27.00
2019-05-21T22:15:47.843Z,26.90
2019-05-21T22:18:41.753Z,27.00
2019-05-21T22:21:35.099Z,27.00
2019-05-21T22:24:27.247Z,27.00
2019-05-21T22:27:19.508Z,26.90
2019-05-21T22:30:13.160Z,26.90
2019-05-21T22:33:05.102Z,26.80
2019-05-21T22:35:57.216Z,26.80
2019-05-21T22:38:49.514Z,26.80
2019-05-21T22:41:41.464Z,26.80
2019-05-21T22:44:35.358Z,26.90
2019-05-21T22:47:27.479Z,27.00
2019-05-21T22:50:19.748Z,26.80
2019-05-21T22:53:12.018Z,26.90
2019-05-21T22:56:04.113Z,26.90
2019-05-21T22:58:56.104Z,26.90
2019-05-21T23:01:49.965Z,26.90
2019-05-21T23:04:42.064Z,26.80
2019-05-21T23:07:35.976Z,26.90
2019-05-21T23:10:28.720Z,27.00
2019-05-21T23:13:21.082Z,26.90
2019-05-21T23:16:13.518Z,26.90
2019-05-21T23:19:10.986Z,26.90
2019-05-21T23:22:06.567Z,26.80
2019-05-21T23:24:58.854Z,27.00
2019-05-21T23:27:51.571Z,26.90
2019-05-21T23:30:45.139Z,27.00
2019-05-21T23:33:38.493Z,26.80
2019-05-21T23:36:31.725Z,26.80
2019-05-21T23:39:27.124Z,26.70
2019-05-21T23:42:28.998Z,26.80
2019-05-21T23:45:14.157Z,26.80
2019-05-21T23:48:09.503Z,26.80
2019-05-21T23:51:03.319Z,26.70
2019-05-21T23:53:56.940Z,26.70
2019-05-21T23:56:51.120Z,26.80
2019-05-21T23:59:44.714Z,26.60
